createdAt,value
2023-03-12T00:00:42.334Z,4.40
2023-03-12T00:03:08.583Z,4.67
2023-03-12T00:05:36.637Z,4.20
2023-03-12T00:08:02.817Z,4.03
2023-03-12T00:10:29.349Z,3.73
2023-03-12T00:12:55.680Z,3.90
2023-03-12T00:15:21.864Z,4.23
2023-03-12T00:17:48.840Z,3.50
2023-03-12T00:20:15.408Z,3.50
2023-03-12T00:22:41.646Z,3.63
2023-03-12T00:25:12.381Z,3.30
2023-03-12T00:27:38.585Z,3.43
2023-03-12T00:30:06.351Z,3.77
2023-03-12T00:32:32.909Z,4.10
2023-03-12T00:35:00.174Z,3.40
2023-03-12T00:37:26.357Z,3.67
2023-03-12T00:39:52.603Z,3.20
2023-03-12T00:42:18.798Z,3.17
2023-03-12T00:44:45.158Z,3.10
2023-03-12T00:47:11.940Z,3.00
2023-03-12T00:49:38.372Z,3.77
2023-03-12T00:52:05.922Z,3.67
2023-03-12T00:54:32.140Z,3.30
2023-03-12T00:56:58.356Z,3.30
2023-03-12T00:59:24.695Z,2.97
2023-03-12T01:01:50.919Z,3.33
2023-03-12T01:04:17.210Z,3.40
2023-03-12T01:06:43.477Z,3.27
2023-03-12T01:09:10.452Z,3.13
2023-03-12T01:11:37.733Z,2.60
2023-03-12T01:14:05.620Z,3.33
2023-03-12T01:16:32.072Z,3.57
2023-03-12T01:19:00.315Z,2.60
2023-03-12T01:21:27.384Z,2.83
2023-03-12T01:23:54.194Z,2.63
2023-03-12T01:26:21.369Z,2.87
2023-03-12T01:28:47.813Z,2.90
2023-03-12T01:31:17.863Z,2.97
2023-03-12T01:33:44.685Z,3.10
2023-03-12T01:36:17.191Z,3.10
2023-03-12T01:38:43.449Z,3.13
2023-03-12T01:41:09.611Z,3.13
2023-03-12T01:43:37.792Z,3.20
2023-03-12T01:46:24.512Z,2.83
2023-03-12T01:48:54.617Z,2.63
2023-03-12T01:51:22.120Z,3.03
2023-03-12T01:53:51.415Z,2.80
2023-03-12T01:56:18.518Z,3.33
2023-03-12T01:58:48.670Z,2.93
2023-03-12T02:01:15.916Z,3.07
2023-03-12T02:03:42.965Z,3.03
2023-03-12T02:06:13.511Z,3.00
2023-03-12T02:08:42.497Z,3.10
2023-03-12T02:11:10.606Z,3.30
2023-03-12T02:13:36.864Z,3.07
2023-03-12T02:16:04.583Z,3.27
2023-03-12T02:18:30.889Z,3.67
2023-03-12T02:21:03.561Z,3.13
2023-03-12T02:23:32.693Z,3.17
2023-03-12T02:26:00.019Z,3.10
2023-03-12T02:28:28.025Z,3.07
2023-03-12T02:30:57.445Z,3.10
2023-03-12T02:33:23.818Z,2.87
2023-03-12T02:35:51.751Z,3.17
2023-03-12T02:38:40.527Z,3.07
2023-03-12T02:41:13.088Z,3.03
2023-03-12T02:43:39.939Z,3.27
2023-03-12T02:46:06.810Z,2.93
2023-03-12T02:48:33.277Z,2.67
2023-03-12T02:50:59.571Z,2.83
2023-03-12T02:53:25.826Z,2.73
2023-03-12T02:55:51.977Z,2.90
2023-03-12T02:58:18.898Z,2.90
2023-03-12T03:00:45.071Z,2.70
2023-03-12T03:03:11.375Z,2.97
2023-03-12T03:05:37.550Z,2.87
2023-03-12T03:08:04.316Z,2.50
2023-03-12T03:10:30.786Z,2.60
2023-03-12T03:12:57.294Z,2.63
2023-03-12T03:15:24.445Z,2.67
2023-03-12T03:17:50.690Z,2.40
2023-03-12T03:20:16.965Z,2.47
2023-03-12T03:22:43.144Z,2.53
2023-03-12T03:25:10.140Z,2.30
2023-03-12T03:27:36.416Z,2.33
2023-03-12T03:30:03.675Z,2.50
2023-03-12T03:32:30.478Z,2.57
2023-03-12T03:34:56.632Z,2.57
2023-03-12T03:37:22.857Z,2.60
2023-03-12T03:39:49.020Z,2.40
2023-03-12T03:42:15.309Z,2.40
2023-03-12T03:44:41.784Z,2.30
2023-03-12T03:47:07.912Z,2.20
2023-03-12T03:49:34.743Z,2.10
2023-03-12T03:52:00.975Z,2.30
2023-03-12T03:54:27.443Z,2.50
2023-03-12T03:56:53.805Z,1.97
2023-03-12T03:59:19.978Z,2.30
2023-03-12T04:01:46.158Z,2.23
2023-03-12T04:04:12.309Z,2.30
2023-03-12T04:06:39.179Z,2.43
2023-03-12T04:09:05.471Z,2.60
2023-03-12T04:11:31.680Z,2.63
2023-03-12T04:13:57.896Z,2.20
2023-03-12T04:16:24.639Z,2.13
2023-03-12T04:18:50.949Z,2.10
2023-03-12T04:21:17.263Z,2.23
2023-03-12T04:23:44.262Z,2.23
2023-03-12T04:26:10.459Z,2.50
2023-03-12T04:28:36.957Z,2.30
2023-03-12T04:31:05.845Z,2.07
2023-03-12T04:33:34.564Z,2.40
2023-03-12T04:36:00.925Z,2.17
2023-03-12T04:38:27.254Z,2.33
2023-03-12T04:41:00.500Z,2.27
2023-03-12T04:43:29.153Z,2.20
2023-03-12T04:45:55.980Z,2.30
2023-03-12T04:48:22.372Z,2.23
2023-03-12T04:50:48.779Z,2.53
2023-03-12T04:53:15.091Z,2.27
2023-03-12T04:55:41.529Z,2.53
2023-03-12T04:58:08.599Z,2.53
2023-03-12T05:00:34.798Z,2.13
2023-03-12T05:03:01.566Z,1.90
2023-03-12T05:05:27.779Z,2.90
2023-03-12T05:07:54.051Z,2.33
2023-03-12T05:10:20.189Z,2.50
2023-03-12T05:12:46.472Z,2.23
2023-03-12T05:15:13.237Z,2.50
2023-03-12T05:17:39.391Z,2.47
2023-03-12T05:20:05.981Z,3.17
2023-03-12T05:22:32.240Z,2.20
2023-03-12T05:24:58.461Z,2.23
2023-03-12T05:27:25.294Z,2.20
2023-03-12T05:29:51.725Z,2.43
2023-03-12T05:32:18.582Z,2.30
2023-03-12T05:34:44.918Z,2.30
2023-03-12T05:37:11.190Z,2.17
2023-03-12T05:39:37.632Z,2.17
2023-03-12T05:42:04.118Z,2.40
2023-03-12T05:44:30.366Z,2.37
2023-03-12T05:46:58.806Z,2.20
2023-03-12T05:49:26.055Z,2.70
2023-03-12T05:51:52.200Z,3.00
2023-03-12T05:54:18.408Z,2.83
2023-03-12T05:56:44.760Z,2.40
2023-03-12T05:59:10.945Z,2.70
2023-03-12T06:01:37.250Z,2.87
2023-03-12T06:04:03.590Z,2.77
2023-03-12T06:06:30.896Z,2.97
2023-03-12T06:08:57.115Z,2.93
2023-03-12T06:11:23.267Z,2.93
2023-03-12T06:13:49.614Z,3.03
2023-03-12T06:16:17.618Z,2.90
2023-03-12T06:18:43.818Z,3.37
2023-03-12T06:21:12.941Z,3.30
2023-03-12T06:23:42.396Z,3.50
2023-03-12T06:26:09.920Z,3.10
2023-03-12T06:28:36.292Z,3.00
2023-03-12T06:31:03.077Z,3.50
2023-03-12T06:33:30.073Z,3.10
2023-03-12T06:35:57.693Z,3.10
2023-03-12T06:38:24.253Z,2.83
2023-03-12T06:40:55.409Z,3.10
2023-03-12T06:43:23.838Z,2.90
2023-03-12T06:45:50.065Z,2.60
2023-03-12T06:48:16.618Z,3.23
2023-03-12T06:50:43.319Z,3.00
2023-03-12T06:53:09.702Z,2.77
2023-03-12T06:55:36.186Z,2.93
2023-03-12T06:58:03.489Z,2.63
2023-03-12T07:00:29.695Z,2.87
2023-03-12T07:02:56.324Z,2.70
2023-03-12T07:05:23.160Z,2.60
2023-03-12T07:07:49.668Z,2.90
2023-03-12T07:10:15.976Z,2.53
2023-03-12T07:12:42.207Z,3.17
2023-03-12T07:15:09.980Z,3.20
2023-03-12T07:17:36.169Z,3.00
2023-03-12T07:20:02.756Z,2.90
2023-03-12T07:22:29.039Z,2.90
2023-03-12T07:24:55.243Z,3.03
2023-03-12T07:27:21.664Z,3.17
2023-03-12T07:29:47.862Z,3.30
2023-03-12T07:32:14.849Z,3.13
2023-03-12T07:34:41.275Z,2.73
2023-03-12T07:37:07.402Z,3.03
2023-03-12T07:39:33.643Z,3.57
2023-03-12T07:41:59.944Z,3.67
2023-03-12T07:44:26.668Z,3.00
2023-03-12T07:46:53.121Z,3.20
2023-03-12T07:49:20.227Z,3.33
2023-03-12T07:51:46.925Z,2.97
2023-03-12T07:54:13.259Z,3.33
2023-03-12T07:56:39.599Z,3.30
2023-03-12T07:59:06.089Z,3.13
2023-03-12T08:01:32.537Z,3.03
2023-03-12T08:03:58.890Z,2.80
2023-03-12T08:06:25.939Z,3.60
2023-03-12T08:08:52.367Z,3.03
2023-03-12T08:11:18.659Z,3.17
2023-03-12T08:13:45.280Z,3.13
2023-03-12T08:16:11.905Z,3.13
2023-03-12T08:18:38.226Z,3.10
2023-03-12T08:21:04.808Z,3.33
2023-03-12T08:23:31.758Z,3.43
2023-03-12T08:25:58.184Z,3.63
2023-03-12T08:28:24.785Z,3.10
2023-03-12T08:30:52.594Z,3.27
2023-03-12T08:33:19.382Z,3.67
2023-03-12T08:35:46.316Z,3.30
2023-03-12T08:38:13.021Z,3.73
2023-03-12T08:40:39.906Z,3.63
2023-03-12T08:43:06.855Z,3.53
2023-03-12T08:45:35.463Z,4.40
2023-03-12T08:48:01.869Z,4.00
2023-03-12T08:50:30.411Z,3.93
2023-03-12T08:52:56.616Z,4.37
2023-03-12T08:55:22.860Z,4.10
2023-03-12T08:57:49.667Z,3.87
2023-03-12T09:00:17.248Z,4.07
2023-03-12T09:02:44.393Z,4.40
2023-03-12T09:05:10.936Z,4.10
2023-03-12T09:07:37.415Z,4.20
2023-03-12T09:10:04.651Z,3.93
2023-03-12T09:12:30.982Z,4.73
2023-03-12T09:15:03.326Z,4.77
2023-03-12T09:17:29.944Z,5.00
2023-03-12T09:19:56.107Z,5.10
2023-03-12T09:22:22.301Z,4.80
2023-03-12T09:24:48.498Z,5.00
2023-03-12T09:27:14.710Z,5.50
2023-03-12T09:29:53.446Z,5.77
2023-03-12T09:32:26.837Z,5.63
2023-03-12T09:34:53.635Z,5.73
2023-03-12T09:37:22.350Z,6.23
2023-03-12T09:39:49.982Z,5.80
2023-03-12T09:42:22.653Z,6.27
2023-03-12T09:44:50.566Z,5.83
2023-03-12T09:47:24.758Z,6.33
2023-03-12T09:49:56.184Z,6.00
2023-03-12T09:52:25.623Z,6.57
2023-03-12T09:54:55.041Z,6.30
2023-03-12T09:57:24.022Z,6.97
2023-03-12T09:59:50.475Z,7.23
2023-03-12T10:02:31.185Z,6.97
2023-03-12T10:05:00.213Z,6.33
2023-03-12T10:07:31.923Z,7.60
2023-03-12T10:10:09.256Z,7.70
2023-03-12T10:12:54.247Z,7.10
2023-03-12T10:15:29.326Z,7.10
2023-03-12T10:18:04.360Z,7.27
2023-03-12T10:20:46.954Z,7.50
2023-03-12T10:23:18.946Z,7.13
2023-03-12T10:25:48.874Z,7.33
2023-03-12T10:28:17.259Z,7.50
2023-03-12T10:30:48.725Z,7.43
2023-03-12T10:33:17.643Z,7.93
2023-03-12T10:35:44.529Z,8.07
2023-03-12T10:38:14.327Z,8.20
2023-03-12T10:40:40.683Z,7.17
2023-03-12T10:43:06.912Z,7.83
2023-03-12T10:45:37.954Z,7.87
2023-03-12T10:48:06.407Z,8.40
2023-03-12T10:50:34.581Z,9.43
2023-03-12T10:53:20.648Z,9.27
2023-03-12T10:55:58.159Z,9.13
2023-03-12T10:58:25.637Z,9.10
2023-03-12T11:00:56.390Z,9.33
2023-03-12T11:03:22.574Z,8.73
2023-03-12T11:05:50.509Z,8.27
2023-03-12T11:08:22.562Z,9.00
2023-03-12T11:10:48.876Z,8.63
2023-03-12T11:13:33.050Z,8.73
2023-03-12T11:16:00.117Z,9.87
2023-03-12T11:18:32.172Z,9.27
2023-03-12T11:21:13.819Z,10.30
2023-03-12T11:23:42.431Z,9.73
2023-03-12T11:26:13.107Z,10.73
2023-03-12T11:28:42.753Z,10.30
2023-03-12T11:31:13.805Z,9.23
2023-03-12T11:33:40.100Z,10.50
2023-03-12T11:36:19.922Z,9.83
2023-03-12T11:38:51.939Z,10.33
2023-03-12T11:41:25.587Z,9.37
2023-03-12T11:44:00.031Z,10.20
2023-03-12T11:46:34.121Z,9.53
2023-03-12T11:49:14.845Z,10.63
2023-03-12T11:51:47.365Z,10.87
2023-03-12T11:54:55.336Z,10.73
2023-03-12T11:57:30.314Z,10.80
2023-03-12T12:00:11.597Z,10.83
2023-03-12T12:03:00.177Z,10.60
2023-03-12T12:05:37.953Z,10.53
2023-03-12T12:08:18.607Z,11.63
2023-03-12T12:10:52.134Z,12.40
2023-03-12T12:13:23.936Z,13.37
2023-03-12T12:15:57.418Z,12.70
2023-03-12T12:18:35.119Z,12.17
2023-03-12T12:21:05.304Z,13.00
2023-03-12T12:23:40.009Z,12.80
2023-03-12T12:26:08.241Z,12.77
2023-03-12T12:28:47.074Z,12.03
2023-03-12T12:31:24.135Z,13.10
2023-03-12T12:34:11.801Z,12.63
2023-03-12T12:36:38.383Z,12.77
2023-03-12T12:39:08.460Z,13.73
2023-03-12T12:41:36.828Z,13.23
2023-03-12T12:44:06.118Z,13.37
2023-03-12T12:46:34.634Z,12.80
2023-03-12T12:49:03.454Z,13.83
2023-03-12T12:51:32.555Z,13.40
2023-03-12T12:54:01.468Z,14.20
2023-03-12T12:56:31.319Z,13.63
2023-03-12T12:59:24.335Z,14.43
2023-03-12T13:01:51.208Z,14.47
2023-03-12T13:04:23.097Z,13.53
2023-03-12T13:06:58.139Z,13.63
2023-03-12T13:09:36.457Z,13.37
2023-03-12T13:12:14.545Z,12.70
2023-03-12T13:14:41.961Z,10.73
2023-03-12T13:17:28.507Z,9.70
2023-03-12T13:20:01.671Z,7.73
2023-03-12T13:22:45.018Z,8.07
2023-03-12T13:25:24.422Z,7.83
2023-03-12T13:27:58.398Z,7.63
2023-03-12T13:30:48.843Z,8.30
2023-03-12T13:33:18.468Z,6.40
2023-03-12T13:35:48.676Z,6.70
2023-03-12T13:38:18.155Z,6.07
2023-03-12T13:41:03.317Z,6.53
2023-03-12T13:43:58.783Z,5.63
2023-03-12T13:46:44.952Z,6.77
2023-03-12T13:49:16.204Z,6.80
2023-03-12T13:51:45.006Z,6.60
2023-03-12T13:54:16.256Z,5.83
2023-03-12T13:56:47.175Z,5.57
2023-03-12T13:59:16.895Z,6.20
2023-03-12T14:01:47.899Z,5.80
2023-03-12T14:04:18.373Z,5.90
2023-03-12T14:06:55.143Z,6.43
2023-03-12T14:09:29.169Z,5.50
2023-03-12T14:12:00.640Z,4.97
2023-03-12T14:14:44.300Z,5.23
2023-03-12T14:17:19.056Z,4.83
2023-03-12T14:19:47.629Z,5.57
2023-03-12T14:22:13.925Z,5.13
2023-03-12T14:24:41.199Z,4.30
2023-03-12T14:27:14.132Z,4.60
2023-03-12T14:29:42.712Z,4.83
2023-03-12T14:32:15.380Z,4.97
2023-03-12T14:34:45.512Z,4.40
2023-03-12T14:37:15.718Z,4.50
2023-03-12T14:39:43.854Z,4.37
2023-03-12T14:42:10.988Z,4.27
2023-03-12T14:44:39.015Z,4.63
2023-03-12T14:47:06.859Z,3.87
2023-03-12T14:49:39.720Z,4.40
2023-03-12T14:52:07.406Z,3.90
2023-03-12T14:54:33.716Z,4.57
2023-03-12T14:56:59.948Z,4.43
2023-03-12T14:59:28.527Z,4.27
2023-03-12T15:01:58.903Z,4.60
2023-03-12T15:04:25.631Z,5.30
2023-03-12T15:06:53.988Z,4.67
2023-03-12T15:09:25.107Z,4.30
2023-03-12T15:11:53.190Z,4.20
2023-03-12T15:14:20.978Z,4.30
2023-03-12T15:16:47.425Z,4.33
2023-03-12T15:19:14.439Z,4.80
2023-03-12T15:21:40.708Z,4.83
2023-03-12T15:24:09.606Z,4.40
2023-03-12T15:26:37.325Z,5.20
2023-03-12T15:29:15.219Z,4.77
2023-03-12T15:31:42.355Z,4.33
2023-03-12T15:34:10.906Z,4.73
2023-03-12T15:36:45.338Z,5.57
2023-03-12T15:39:21.402Z,5.33
2023-03-12T15:41:48.964Z,4.33
2023-03-12T15:44:20.179Z,4.80
2023-03-12T15:46:48.695Z,4.83
2023-03-12T15:49:22.530Z,4.33
2023-03-12T15:51:58.412Z,4.43
2023-03-12T15:54:26.411Z,4.73
2023-03-12T15:56:54.722Z,4.87
2023-03-12T15:59:24.562Z,4.93
2023-03-12T16:01:52.761Z,4.83
2023-03-12T16:04:19.348Z,4.53
2023-03-12T16:06:48.181Z,4.77
2023-03-12T16:09:16.778Z,4.47
2023-03-12T16:11:43.768Z,4.67
2023-03-12T16:14:14.827Z,4.67
2023-03-12T16:16:41.096Z,5.13
2023-03-12T16:19:11.236Z,4.63
2023-03-12T16:21:37.422Z,3.90
2023-03-12T16:24:04.035Z,4.57
2023-03-12T16:26:32.141Z,4.63
2023-03-12T16:28:58.880Z,5.23
2023-03-12T16:31:25.784Z,4.73
2023-03-12T16:33:51.992Z,4.20
2023-03-12T16:36:18.655Z,4.93
2023-03-12T16:38:45.390Z,4.53
2023-03-12T16:41:13.507Z,4.37
2023-03-12T16:43:40.644Z,4.03
2023-03-12T16:46:08.416Z,5.30
2023-03-12T16:48:35.604Z,5.10
2023-03-12T16:51:02.371Z,4.93
2023-03-12T16:53:28.750Z,4.23
2023-03-12T16:55:56.509Z,3.70
2023-03-12T16:58:24.009Z,4.13
2023-03-12T17:00:51.580Z,4.67
2023-03-12T17:03:29.720Z,4.57
2023-03-12T17:05:56.581Z,4.37
2023-03-12T17:08:22.777Z,4.50
2023-03-12T17:10:49.021Z,4.30
2023-03-12T17:13:18.902Z,4.80
2023-03-12T17:15:45.568Z,4.73
2023-03-12T17:18:12.116Z,4.33
2023-03-12T17:20:38.761Z,4.97
2023-03-12T17:23:06.139Z,4.67
2023-03-12T17:25:34.743Z,4.60
2023-03-12T17:28:00.968Z,4.43
2023-03-12T17:30:28.657Z,4.90
2023-03-12T17:33:01.097Z,4.33
2023-03-12T17:35:27.344Z,5.03
2023-03-12T17:37:53.532Z,4.60
2023-03-12T17:40:20.409Z,4.60
2023-03-12T17:42:46.598Z,5.90
2023-03-12T17:45:13.079Z,4.07
2023-03-12T17:47:39.485Z,4.90
2023-03-12T17:50:06.846Z,4.33
2023-03-12T17:52:33.216Z,4.73
2023-03-12T17:55:00.096Z,4.80
2023-03-12T17:57:27.383Z,5.10
2023-03-12T17:59:53.599Z,5.50
2023-03-12T18:02:20.526Z,4.60
2023-03-12T18:04:46.896Z,4.20
2023-03-12T18:07:13.181Z,4.50
2023-03-12T18:09:39.417Z,4.87
2023-03-12T18:12:06.211Z,4.23
2023-03-12T18:14:33.161Z,4.43
2023-03-12T18:16:59.411Z,5.47
2023-03-12T18:19:26.346Z,4.73
2023-03-12T18:21:52.635Z,4.47
2023-03-12T18:24:18.923Z,5.00
2023-03-12T18:26:45.374Z,4.97
2023-03-12T18:29:11.770Z,5.70
2023-03-12T18:31:38.750Z,4.70
2023-03-12T18:34:05.089Z,5.27
2023-03-12T18:36:31.309Z,4.50
2023-03-12T18:38:58.624Z,5.23
2023-03-12T18:41:30.325Z,4.87
2023-03-12T18:43:56.672Z,6.80
2023-03-12T18:46:23.744Z,5.03
2023-03-12T18:48:51.485Z,5.57
2023-03-12T18:51:17.670Z,5.37
2023-03-12T18:53:45.229Z,5.70
2023-03-12T18:56:12.100Z,5.70
2023-03-12T18:58:38.429Z,5.77
2023-03-12T19:01:04.831Z,6.47
2023-03-12T19:03:35.404Z,4.63
2023-03-12T19:06:04.265Z,4.97
2023-03-12T19:08:30.456Z,5.10
2023-03-12T19:10:56.670Z,4.87
2023-03-12T19:13:22.939Z,4.63
2023-03-12T19:15:50.240Z,5.10
2023-03-12T19:18:16.490Z,4.20
2023-03-12T19:20:42.695Z,4.60
2023-03-12T19:23:09.508Z,4.93
2023-03-12T19:25:35.657Z,3.77
2023-03-12T19:28:01.921Z,4.00
2023-03-12T19:30:29.859Z,4.70
2023-03-12T19:32:56.189Z,5.00
2023-03-12T19:35:22.347Z,4.77
2023-03-12T19:37:48.561Z,4.60
2023-03-12T19:40:15.684Z,4.50
2023-03-12T19:42:41.884Z,4.37
2023-03-12T19:45:11.344Z,4.93
2023-03-12T19:47:37.591Z,4.77
2023-03-12T19:50:04.606Z,4.80
2023-03-12T19:52:31.091Z,4.37
2023-03-12T19:55:04.595Z,4.17
2023-03-12T19:57:32.271Z,4.87
2023-03-12T19:59:58.845Z,4.20
2023-03-12T20:02:25.658Z,4.40
2023-03-12T20:04:51.898Z,4.53
2023-03-12T20:07:18.134Z,4.97
2023-03-12T20:09:44.652Z,4.50
2023-03-12T20:12:11.011Z,4.43
2023-03-12T20:14:38.069Z,4.63
2023-03-12T20:17:04.439Z,4.70
2023-03-12T20:19:31.910Z,4.90
2023-03-12T20:21:58.249Z,5.17
2023-03-12T20:24:24.410Z,4.20
2023-03-12T20:26:50.597Z,4.57
2023-03-12T20:29:16.833Z,5.23
2023-03-12T20:31:43.781Z,4.00
2023-03-12T20:34:10.093Z,3.90
2023-03-12T20:36:36.296Z,5.33
2023-03-12T20:39:02.795Z,5.07
2023-03-12T20:41:29.945Z,4.63
2023-03-12T20:43:56.663Z,5.40
2023-03-12T20:46:23.371Z,4.70
2023-03-12T20:48:50.337Z,4.67
2023-03-12T20:51:17.564Z,4.97
2023-03-12T20:53:43.775Z,5.10
2023-03-12T20:56:10.330Z,5.80
2023-03-12T20:58:36.707Z,4.27
2023-03-12T21:01:03.986Z,4.33
2023-03-12T21:03:30.312Z,4.77
2023-03-12T21:05:58.392Z,4.33
2023-03-12T21:08:24.945Z,4.93
2023-03-12T21:10:51.959Z,4.53
2023-03-12T21:13:19.819Z,5.80
2023-03-12T21:15:46.406Z,4.07
2023-03-12T21:18:12.751Z,5.00
2023-03-12T21:20:39.617Z,3.90
2023-03-12T21:23:07.197Z,5.03
2023-03-12T21:25:34.123Z,4.47
2023-03-12T21:28:00.361Z,5.20
2023-03-12T21:30:26.742Z,4.80
2023-03-12T21:32:53.179Z,4.63
2023-03-12T21:35:19.406Z,4.23
2023-03-12T21:37:45.607Z,4.47
2023-03-12T21:40:13.612Z,4.87
2023-03-12T21:42:39.851Z,5.00
2023-03-12T21:45:07.375Z,4.77
2023-03-12T21:47:36.005Z,5.57
2023-03-12T21:50:02.428Z,4.17
2023-03-12T21:52:28.826Z,5.23
2023-03-12T21:54:54.978Z,4.73
2023-03-12T21:57:21.856Z,4.40
2023-03-12T21:59:48.063Z,4.80
2023-03-12T22:02:15.047Z,4.87
2023-03-12T22:04:41.486Z,4.87
2023-03-12T22:07:07.738Z,5.23
2023-03-12T22:09:33.993Z,4.80
2023-03-12T22:12:00.699Z,4.03
2023-03-12T22:14:27.776Z,5.27
2023-03-12T22:16:54.153Z,4.63
2023-03-12T22:19:20.720Z,4.70
2023-03-12T22:21:46.925Z,4.63
2023-03-12T22:24:13.143Z,4.87
2023-03-12T22:26:39.352Z,4.10
2023-03-12T22:29:07.205Z,4.40
2023-03-12T22:31:34.249Z,4.93
2023-03-12T22:34:00.653Z,4.27
2023-03-12T22:36:26.900Z,4.50
2023-03-12T22:38:53.144Z,4.43
2023-03-12T22:41:20.740Z,4.13
2023-03-12T22:43:47.809Z,4.03
2023-03-12T22:46:15.783Z,4.33
2023-03-12T22:48:42.703Z,4.40
2023-03-12T22:51:09.356Z,4.20
2023-03-12T22:53:35.590Z,3.93
2023-03-12T22:56:04.044Z,4.40
2023-03-12T22:58:30.465Z,4.90
2023-03-12T23:01:00.531Z,4.10
2023-03-12T23:03:27.225Z,4.63
2023-03-12T23:05:54.182Z,3.70
2023-03-12T23:08:20.478Z,3.70
2023-03-12T23:10:50.634Z,4.67
2023-03-12T23:13:16.792Z,4.20
2023-03-12T23:15:43.000Z,4.03
2023-03-12T23:18:09.323Z,3.37
2023-03-12T23:20:35.506Z,4.70
2023-03-12T23:23:02.442Z,4.17
2023-03-12T23:25:28.601Z,4.87
2023-03-12T23:27:54.869Z,3.90
2023-03-12T23:30:21.169Z,3.70
2023-03-12T23:32:47.525Z,4.27
2023-03-12T23:35:13.853Z,3.37
2023-03-12T23:37:40.126Z,5.27
2023-03-12T23:40:10.316Z,3.23
2023-03-12T23:42:36.638Z,4.10
2023-03-12T23:45:03.263Z,3.50
2023-03-12T23:47:29.485Z,3.77
2023-03-12T23:49:55.711Z,4.40
2023-03-12T23:52:25.563Z,3.53
2023-03-12T23:54:51.754Z,4.93
2023-03-12T23:57:18.555Z,3.97
2023-03-12T23:59:44.949Z,3.97
